KRST

Rochester International Airport

Rochester, Minnesota, USA
METAR KRST 191654Z 19007KT 10SM FEW036 26/20 A2998 RMK AO2 SLP146 T02610200 $
Observed Flight Rules
Aug-19 @ 16:54 UTC (20 minutes ago) Visual Flight Rules
Wind Visibility Clouds
190° at 7 knots 10 miles
  • Few at 3,600' AGL
Temperatures Readings
Current 26°C / 79°F
Dewpoint 20°C / 68°F
Humidity 70%
Altimeter 29.98" Hg
Pressure 1014.6 hPa
Elevation 403
METAR KRST 191654Z 19007KT 10SM FEW036 26/20 A2998 RMK AO2 SLP146 T02610200 $
Observed Flight Rules
Aug-19 @ 16:54 UTC
(20 minutes ago)
VFR
Wind Visibility
190° at 7 knots 10 miles
Clouds
  • Few at 3,600' AGL
Temperature Dewpoint
26°C / 79°F 20°C / 68°F
Humidity Altimeter Pressure
70% 29.98" Hg 1014.6 hPa